»·PEaware :: N710DS KMSO-KSEA

N710DS :: KMSO-KSEA

FLIGHT INFORMATION

Flight Status: Arrived
Operator: Privately registered:
United States
More flights under this callsign
Pilot: John H. (10732)
Aircraft: Unknown
(B60T)
More flights by this aircraft type
Origin: KMSO Missoula Intl
United States
Destination: KSEA Seattle-Tacoma Intl
United States
More flights between these airports :: More routes between these airports
Route: +DIDLY5 MLP GLASR1
File this flight plan on PilotEdge
Remarks:
Altitude:
(Current/Filed)
20,000ft
Speed:
(Current/Filed)
300kts
Departed: 10-Jun-19 05:07 PM
Arrived: 10-Jun-19 06:41 PM
Distance/Time
Traveled:
337nm/1:34
Distance/Time
To Go:
Arrived

Flight Plot

Page will automatically refresh every two minutes.

Flight plan parsing failed; only flown route is shown


Map Options




Map Legend


Flown Route
Filed Route
Departure Airport
Arrival Airport
Navaid (VOR, NDB)
Fix

Horizontal Profiles

Position Reports

Time Latitude Longitude Heading Altitude Ground
Speed
10-Jun-19 16:53 46.914783 -114.079888 180 3208ft 0kts
10-Jun-19 16:54 46.914783 -114.079888 180 3208ft 0kts
10-Jun-19 16:55 46.914783 -114.079888 180 3208ft 0kts
10-Jun-19 16:56 46.914783 -114.079888 180 3208ft 0kts
10-Jun-19 16:57 46.914783 -114.079888 180 3208ft 0kts
10-Jun-19 16:58 46.914783 -114.079888 180 3208ft 0kts
10-Jun-19 16:59 46.914783 -114.079888 180 3208ft 0kts
10-Jun-19 16:59 46.914783 -114.079888 180 3208ft 0kts
10-Jun-19 17:01 46.914783 -114.079888 180 3208ft 0kts
10-Jun-19 17:02 46.914783 -114.079888 180 3208ft 0kts
10-Jun-19 17:02 46.915250 -114.080559 279 3208ft 10kts
10-Jun-19 17:03 46.913271 -114.083423 132 3208ft 17kts
10-Jun-19 17:05 46.908513 -114.077427 221 3208ft 0kts
10-Jun-19 17:05 46.908496 -114.077450 221 3208ft 3kts
10-Jun-19 17:06 46.911736 -114.084298 308 3264ft 126kts
10-Jun-19 17:07 46.940925 -114.138463 307 6454ft 172kts
10-Jun-19 17:08 46.971966 -114.191430 310 10457ft 170kts
10-Jun-19 17:09 46.994624 -114.252598 292 14132ft 193kts
10-Jun-19 17:10 47.020762 -114.331080 292 16741ft 201kts
10-Jun-19 17:11 47.045403 -114.403800 287 20213ft 220kts
10-Jun-19 17:12 47.076643 -114.497367 290 20258ft 273kts
10-Jun-19 17:13 47.110809 -114.597463 290 20255ft 273kts
10-Jun-19 17:14 47.144271 -114.696971 290 20269ft 272kts
10-Jun-19 17:15 47.177803 -114.797183 290 20269ft 272kts
10-Jun-19 17:16 47.210937 -114.896650 291 20282ft 271kts
10-Jun-19 17:17 47.244105 -114.996548 291 20285ft 272kts
10-Jun-19 17:18 47.277266 -115.096871 291 20288ft 272kts
10-Jun-19 17:19 47.310249 -115.197006 292 20294ft 272kts
10-Jun-19 17:20 47.343205 -115.297443 292 20295ft 272kts
10-Jun-19 17:21 47.376044 -115.397927 292 20297ft 272kts
10-Jun-19 17:22 47.408829 -115.498660 292 20296ft 272kts
10-Jun-19 17:23 47.441475 -115.599342 292 20297ft 272kts
10-Jun-19 17:24 47.460508 -115.705443 272 20301ft 268kts
10-Jun-19 17:25 47.467204 -115.814994 273 20295ft 268kts
10-Jun-19 17:26 47.473944 -115.925086 273 20294ft 268kts
10-Jun-19 17:27 47.480572 -116.035030 273 20292ft 269kts
10-Jun-19 17:28 47.487126 -116.145320 273 20291ft 269kts
10-Jun-19 17:29 47.492999 -116.245823 273 20289ft 269kts
10-Jun-19 17:30 47.499366 -116.356549 273 20286ft 270kts
10-Jun-19 17:31 47.505643 -116.467596 273 20288ft 270kts
10-Jun-19 17:32 47.511804 -116.578539 273 20288ft 270kts
10-Jun-19 17:33 47.517846 -116.689357 273 20287ft 270kts
10-Jun-19 17:34 47.523811 -116.800575 273 20284ft 271kts
10-Jun-19 17:35 47.529656 -116.911684 273 20284ft 271kts
10-Jun-19 17:36 47.535418 -117.023396 273 20276ft 271kts
10-Jun-19 17:37 47.541053 -117.134725 273 20275ft 271kts
10-Jun-19 17:38 47.546599 -117.246365 273 20267ft 272kts
10-Jun-19 17:39 47.552038 -117.358102 273 20267ft 272kts
10-Jun-19 17:40 47.557371 -117.469937 273 20263ft 272kts
10-Jun-19 17:41 47.562593 -117.581768 273 20261ft 273kts
10-Jun-19 17:42 47.570231 -117.693655 278 20260ft 273kts
10-Jun-19 17:43 47.581718 -117.804934 277 20259ft 273kts
10-Jun-19 17:44 47.592409 -117.916412 277 20257ft 273kts
10-Jun-19 17:45 47.602887 -118.027682 277 20256ft 273kts
10-Jun-19 17:46 47.613283 -118.139434 277 20254ft 273kts
10-Jun-19 17:47 47.623579 -118.251274 277 20248ft 273kts
10-Jun-19 17:48 47.633732 -118.362758 277 20284ft 270kts
10-Jun-19 17:49 47.642076 -118.454897 276 22754ft 215kts
10-Jun-19 17:50 47.650447 -118.548934 276 24232ft 262kts
10-Jun-19 17:51 47.660423 -118.661912 276 24224ft 282kts
10-Jun-19 17:52 47.670517 -118.777507 276 24221ft 283kts
10-Jun-19 17:53 47.680518 -118.893434 276 24218ft 283kts
10-Jun-19 17:54 47.690415 -119.009563 276 24218ft 283kts
10-Jun-19 17:55 47.700212 -119.125938 276 24217ft 283kts
10-Jun-19 17:56 47.709858 -119.241976 276 24217ft 283kts
10-Jun-19 17:57 47.719391 -119.358102 276 24216ft 283kts
10-Jun-19 17:58 47.728837 -119.474635 276 24215ft 283kts
10-Jun-19 17:59 47.738143 -119.590966 276 24215ft 283kts
10-Jun-19 18:00 47.747331 -119.707317 276 24213ft 283kts
10-Jun-19 18:01 47.756398 -119.823695 276 24214ft 283kts
10-Jun-19 18:02 47.765345 -119.940062 276 24212ft 283kts
10-Jun-19 18:03 47.774193 -120.056758 276 24217ft 283kts
10-Jun-19 18:04 47.782889 -120.173008 275 24217ft 283kts
10-Jun-19 18:05 47.791496 -120.289679 275 24226ft 283kts
10-Jun-19 18:06 47.799970 -120.406202 275 24227ft 283kts
10-Jun-19 18:07 47.808295 -120.522336 276 23780ft 271kts
10-Jun-19 18:08 47.815832 -120.628271 276 22443ft 249kts
10-Jun-19 18:09 47.822288 -120.720787 276 22078ft 243kts
10-Jun-19 18:10 47.829215 -120.820974 277 21429ft 243kts
10-Jun-19 18:11 47.835537 -120.913562 277 20212ft 221kts
10-Jun-19 18:12 47.841936 -121.008992 277 18974ft 235kts
10-Jun-19 18:13 47.848361 -121.105981 276 17716ft 235kts
10-Jun-19 18:14 47.854688 -121.202687 276 16464ft 233kts
10-Jun-19 18:15 47.860895 -121.298660 276 15219ft 232kts
10-Jun-19 18:16 47.866959 -121.393697 276 13986ft 230kts
10-Jun-19 18:17 47.872915 -121.488299 276 12762ft 228kts
10-Jun-19 18:18 47.878761 -121.582440 275 11532ft 228kts
10-Jun-19 18:19 47.884310 -121.676109 272 10318ft 227kts
10-Jun-19 18:20 47.849753 -121.749242 222 9432ft 225kts
10-Jun-19 18:21 47.808478 -121.808332 226 9991ft 207kts
10-Jun-19 18:22 47.765256 -121.867465 225 9990ft 212kts
10-Jun-19 18:23 47.721240 -121.926903 225 9999ft 214kts
10-Jun-19 18:24 47.676988 -121.986472 225 10000ft 215kts
10-Jun-19 18:25 47.631843 -122.045331 213 9715ft 227kts
10-Jun-19 18:26 47.572745 -122.072171 196 8271ft 219kts
10-Jun-19 18:27 47.513665 -122.094657 196 6805ft 218kts
10-Jun-19 18:28 47.455330 -122.116572 196 5339ft 215kts
10-Jun-19 18:29 47.397412 -122.137754 196 3835ft 212kts
10-Jun-19 18:30 47.342062 -122.158387 196 3014ft 189kts
10-Jun-19 18:31 47.293858 -122.176348 196 3008ft 171kts
10-Jun-19 18:32 47.253313 -122.205903 255 2534ft 179kts
10-Jun-19 18:33 47.258051 -122.269712 320 2021ft 138kts
10-Jun-19 18:34 47.295472 -122.301097 331 1996ft 139kts
10-Jun-19 18:35 47.325889 -122.311418 356 2056ft 116kts
10-Jun-19 18:36 47.355303 -122.312674 355 2015ft 110kts
10-Jun-19 18:37 47.385466 -122.316196 353 1850ft 111kts
10-Jun-19 18:38 47.416019 -122.313894 7 1094ft 111kts
10-Jun-19 18:39 47.443047 -122.311203 0 436ft 55kts
10-Jun-19 18:40 47.444969 -122.313469 181 436ft 28kts
10-Jun-19 18:41 47.439447 -122.313528 184 436ft 14kts
10-Jun-19 18:42 47.438603 -122.316536 7 436ft 6kts

Navigation Log

Ident Type
Flight plan parsing failed, navigation log unavailable